METAR Data
IDs: Format: Raw Decoded Include TAF

Data at: 1142 UTC 16 Feb 2019

PAKW 161053Z AUTO 05007KT 10SM OVC060 M02/M09 A2995 RMK AO2 SLP142 T10171089 TSNO
PAKW 160953Z AUTO 03005KT 10SM OVC055 M02/M08 A2992 RMK AO2 SLP134 T10171083 TSNO
PAKW 160853Z AUTO 03008KT 10SM OVC065 M01/M09 A2990 RMK AO2 SLP125 T10111089 400331039 51018 TSNO
PAKW 160753Z AUTO VRB03KT 10SM OVC065 M02/M08 A2989 RMK AO2 SLP121 T10221078 TSNO
PAKW 160653Z AUTO 02004KT 10SM BKN060 M02/M08 A2986 RMK AO2 SLP112 T10221083 TSNO
PAKW 160553Z AUTO 03004KT 10SM OVC060 M02/M08 A2984 RMK AO2 SLP107 T10171078 10033 21017 51023 TSNO
PAKW 160453Z AUTO 04006KT 10SM OVC060 M01/M08 A2982 RMK AO2 SLP100 T10111078 TSNO
PAKW 160353Z AUTO 04004KT 10SM SCT055 M01/M08 A2980 RMK SLP092 T10111078 TSNO VIA AUTODIAL
PAKW 160253Z AUTO 04005KT 10SM CLR M01/M07 A2978 RMK AO2 SLP084 T10111072 51023 TSNO
PAKW 160153Z AUTO 05007KT 10SM CLR M01/M07 A2976 RMK AO2 SLP079 T10061067 TSNO
PAKW 160053Z AUTO 04005KT 10SM CLR 01/M06 A2974 RMK AO2 SLP070 T00111061 TSNO
PAKW 152353Z AUTO 05006KT 10SM SCT048 03/M06 A2971 RMK AO2 SLP062 T00331056 10033 21028 53013 TSNO
PAKW 152253Z AUTO 05006KT 10SM CLR 03/M06 A2970 RMK AO2 SLP058 T00331056 TSNO
PAKW 152153Z AUTO VRB03KT 10SM CLR 03/M06 A2968 RMK AO2 SLP051 T00331056 TSNO
PAKW 152053Z AUTO 00000KT 10SM CLR 03/M06 A2967 RMK AO2 SLP048 T00281061 51014 TSNO
PAKW 151953Z AUTO VRB03KT 10SM CLR 02/M06 A2966 RMK AO2 SLP045 T00171061 TSNO
PAKW 151853Z AUTO 00000KT 10SM CLR 01/M06 A2965 RMK SLP040 T00061056 TSNO VIA AUTODIAL
PAKW 151753Z AUTO 19003KT 10SM FEW090 M03/M05 A2963 RMK AO2 SLP035 T10281050 11006 21039 53018 TSNO
PAKW 151653Z AUTO 04004KT 10SM FEW075 SCT095 BKN110 M03/M06 A2961 RMK SLP028 T10281056 TSNO VIA AUTODIAL
PAKW 151553Z AUTO 33003KT 10SM SCT075 BKN110 M02/M04 A2960 RMK AO2 SLP023 T10221044 TSNO
PAKW 151453Z AUTO 01003KT 10SM BKN110 M03/M04 A2958 RMK AO2 SLP017 T10281044 53019 TSNO
PAKW 151353Z AUTO 34003KT 10SM BKN110 M02/M05 A2956 RMK AO2 SLP010 T10221050 TSNO
PAKW 151253Z AUTO 01003KT 10SM OVC100 M01/M05 A2954 RMK AO2 SLP002 T10111050 TSNO
PAKW 151153Z AUTO 05008KT 10SM SCT110 M01/M06 A2952 RMK AO2 SLP997 T10061061 10006 21028 51010 TSNO
PAKW 151053Z AUTO 04006KT 10SM FEW120 M01/M06 A2951 RMK AO2 SLP994 T10111061 TSNO
PAKW 150953Z AUTO 02003KT 10SM CLR M02/M06 A2950 RMK AO2 SLP992 T10221061 TSNO
PAKW 150853Z AUTO 36003KT 10SM CLR M02/M06 A2949 RMK AO2 SLP987 T10221056 400221022 51013 TSNO
PAKW 150753Z AUTO 00000KT 10SM FEW110 M02/M06 A2948 RMK AO2 SLP984 T10171056 TSNO
PAKW 150653Z AUTO 04005KT 10SM BKN100 M01/M06 A2946 RMK AO2 SLP978 T10111056 TSNO
PAKW 150553Z AUTO 05007KT 10SM OVC090 01/M05 A2945 RMK AO2 SLP974 T00061050 10022 21006 50002 TSNO
PAKW 150353Z AUTO 07005KT 10SM OVC080 01/M04 A2945 RMK AO2 SLP975 T00061044 TSNO
PAKW 150253Z AUTO VRB04KT 10SM BKN060 OVC075 01/M04 A2945 RMK AO2 SLP973 T00061039 53008 TSNO
PAKW 150153Z AUTO 05004KT 10SM OVC085 01/M04 A2944 RMK SLP969 T00111044 TSNO VIA AUTODIAL
PAKW 150053Z AUTO 05006KT 10SM OVC080 02/M05 A2943 RMK AO2 SLP966 T00171050 TSNO
PAKW 142353Z AUTO 03006KT 10SM OVC080 02/M04 A2942 RMK AO2 SLP964 T00221039 10022 20000 55002 TSNO